Argyle, Florida
Current Conditions -  °F | °C
As of 4:55 AM on Saturday 25 Oct 2014 (Local Time) from K54J Reporting Station
Clear Clear  
Wind Chill: 45°   Ceiling: Unl
Heat Index: 48°   Visibility: 10mi
Dew Point: 45°   Wind: 7mph
Humidity: 88%   Direction: 330°NNW
Pressure: 30.04"   Gusts: NA
Location:  30.72°N, 86.04°W
Report Text: K54J 250955Z AUTO 33006KT 10SM CLR 09/07 A3004 RMK AO2 T00910072
Loading
Personal Weather Stations






























Interactive Weather Map New forecast layout! Learn more

10-Day Weather Forecast

Advertisements
Track Severe Weather on mobile